Date,TemperatureHighF,TemperatureAvgF,TemperatureLowF,DewpointHighF,DewpointAvgF,DewpointLowF,HumidityHigh,HumidityAvg,HumidityLow,PressureMaxIn,PressureMinIn,WindSpeedMaxMPH,WindSpeedAvgMPH,GustSpeedMaxMPH,PrecipitationSumIn
2013-10-1,79.2,64.1,51.5,62.0,56.5,50.0,97,79,47,30.07,29.97,4,0,11,0.00
2013-10-2,83.2,67.5,54.0,64.0,59.0,52.9,98,77,47,30.08,30.00,5,1,13,0.00
2013-10-3,81.4,68.3,57.3,66.4,61.6,56.2,97,81,55,30.13,30.04,2,0,8,0.00
2013-10-4,85.3,70.2,58.4,68.5,63.0,57.3,98,81,50,30.09,30.01,2,0,8,0.00
2013-10-5,86.5,73.8,61.9,68.5,65.1,60.7,97,77,50,30.09,30.00,3,0,10,0.00
2013-10-6,86.1,73.0,62.8,70.8,65.5,61.6,98,80,48,30.03,29.91,5,1,17,0.00
2013-10-7,71.1,63.3,52.4,68.7,60.6,46.4,97,91,80,30.05,29.76,11,1,25,1.22
2013-10-8,65.7,53.9,44.0,49.3,46.3,42.6,97,77,49,30.30,30.05,3,0,14,0.00
2013-10-9,58.6,53.4,48.6,50.3,47.7,44.6,94,81,71,30.34,30.23,1,0,12,0.05
2013-10-10,56.4,53.5,50.8,55.8,52.3,49.2,98,96,88,30.23,30.01,3,0,14,1.60
2013-10-11,60.4,57.9,55.2,59.8,57.3,54.6,98,98,97,30.02,29.95,2,0,12,1.59
2013-10-12,65.6,60.9,57.2,59.9,57.6,54.9,98,89,73,30.18,30.00,1,0,7,0.14
2013-10-13,61.8,57.3,55.0,58.4,55.2,51.5,97,93,79,30.34,30.18,0,0,5,0.06
2013-10-14,67.6,57.7,51.9,54.9,52.1,50.3,95,83,57,30.35,30.23,1,0,8,0.00
2013-10-15,71.2,56.6,46.8,54.7,49.1,45.3,98,79,42,30.25,30.10,1,0,7,0.00
2013-10-16,67.2,60.7,54.9,61.3,57.0,50.8,96,88,79,30.10,29.91,1,0,7,0.00
2013-10-17,73.5,63.4,58.1,64.2,60.4,53.9,98,91,68,29.91,29.71,7,0,10,0.08
2013-10-18,64.3,55.5,44.7,53.1,44.5,42.2,93,68,48,30.02,29.82,8,2,23,0.00
2013-10-19,63.6,51.9,42.0,55.5,47.6,40.7,96,86,58,30.01,29.79,3,0,14,0.14
2013-10-20,60.7,49.5,38.8,47.3,39.6,36.1,93,71,43,30.11,29.86,6,1,17,0.02
2013-10-21,65.8,50.6,37.0,45.8,40.4,36.0,97,73,37,30.16,29.97,5,1,14,0.00
2013-10-22,60.0,49.7,41.5,50.0,44.0,37.3,97,82,55,29.98,29.83,4,0,14,0.00
2013-10-23,53.6,45.9,39.0,39.0,36.6,33.6,87,71,49,29.89,29.67,5,0,12,0.00
2013-10-24,49.6,41.9,35.5,35.2,31.6,27.3,87,68,46,30.14,29.90,9,2,20,0.00
2013-10-25,53.4,41.4,31.3,36.1,31.4,28.6,90,69,45,30.33,30.13,7,1,20,0.00
2013-10-26,53.8,42.0,28.5,31.5,29.3,26.0,92,63,39,30.32,29.95,9,2,20,0.00
2013-10-27,58.7,46.4,36.5,38.6,34.5,31.5,88,65,42,30.16,29.96,6,1,16,0.00
2013-10-28,61.9,45.3,31.9,42.2,36.7,30.2,95,75,42,30.30,30.16,2,0,9,0.00
2013-10-29,62.1,47.0,36.5,44.9,39.6,34.3,93,77,46,30.40,30.30,2,0,6,0.00
2013-10-30,66.8,53.8,43.3,55.3,50.1,40.8,97,88,64,30.34,30.15,2,0,8,0.05
2013-10-31,65.7,59.1,53.0,59.4,56.0,51.9,98,90,77,30.20,29.78,2,1,13,0.03